sensor_id;sensor_type;location;lat;lon;timestamp;P1;durP1;ratioP1;P2;durP2;ratioP2
79346;SDS011;68815;48.810;44.482;2023-07-13T00:00:57;3.9;;;1.4;;
79346;SDS011;68815;48.810;44.482;2023-07-13T00:03:59;3.3;;;1.2;;
79346;SDS011;68815;48.810;44.482;2023-07-13T00:07:00;3.6;;;1.4;;
79346;SDS011;68815;48.810;44.482;2023-07-13T00:10:02;3.5;;;1.3;;
79346;SDS011;68815;48.810;44.482;2023-07-13T00:13:03;4.3;;;1.5;;
79346;SDS011;68815;48.810;44.482;2023-07-13T00:16:05;3.8;;;1.3;;
79346;SDS011;68815;48.810;44.482;2023-07-13T00:19:07;3.6;;;1.5;;
79346;SDS011;68815;48.810;44.482;2023-07-13T00:22:08;3.8;;;1.4;;
79346;SDS011;68815;48.810;44.482;2023-07-13T00:25:10;4;;;1.4;;
79346;SDS011;68815;48.810;44.482;2023-07-13T00:28:12;4;;;1.5;;
79346;SDS011;68815;48.810;44.482;2023-07-13T00:31:14;3.2;;;1.3;;
79346;SDS011;68815;48.810;44.482;2023-07-13T00:34:16;4.4;;;1.6;;
79346;SDS011;68815;48.810;44.482;2023-07-13T00:37:17;3.6;;;1.5;;
79346;SDS011;68815;48.810;44.482;2023-07-13T00:40:19;3.3;;;1.3;;
79346;SDS011;68815;48.810;44.482;2023-07-13T00:43:21;3.6;;;1.5;;
79346;SDS011;68815;48.810;44.482;2023-07-13T00:46:25;3.8;;;1.4;;
79346;SDS011;68815;48.810;44.482;2023-07-13T00:49:29;4.9;;;1.4;;
79346;SDS011;68815;48.810;44.482;2023-07-13T00:52:32;3.6;;;1.3;;
79346;SDS011;68815;48.810;44.482;2023-07-13T00:55:36;3.8;;;1.3;;
79346;SDS011;68815;48.810;44.482;2023-07-13T00:58:37;3.9;;;1.3;;
79346;SDS011;68815;48.810;44.482;2023-07-13T01:01:39;4.9;;;1.3;;
79346;SDS011;68815;48.810;44.482;2023-07-13T01:04:41;4.6;;;1.2;;
79346;SDS011;68815;48.810;44.482;2023-07-13T01:07:43;4.1;;;1.3;;
79346;SDS011;68815;48.810;44.482;2023-07-13T01:10:51;4.1;;;1.4;;
79346;SDS011;68815;48.810;44.482;2023-07-13T01:13:53;5.3;;;1.5;;
79346;SDS011;68815;48.810;44.482;2023-07-13T01:16:54;4.2;;;1.5;;
79346;SDS011;68815;48.810;44.482;2023-07-13T01:19:56;5.8;;;1.4;;
79346;SDS011;68815;48.810;44.482;2023-07-13T01:22:58;4;;;1.3;;
79346;SDS011;68815;48.810;44.482;2023-07-13T01:26:00;4.4;;;2;;
79346;SDS011;68815;48.810;44.482;2023-07-13T01:29:01;4.8;;;1.3;;
79346;SDS011;68815;48.810;44.482;2023-07-13T01:32:03;4.4;;;1.5;;
79346;SDS011;68815;48.810;44.482;2023-07-13T01:35:05;3.7;;;1.4;;
79346;SDS011;68815;48.810;44.482;2023-07-13T01:38:07;4;;;1.6;;
79346;SDS011;68815;48.810;44.482;2023-07-13T01:41:09;3.8;;;1.4;;
79346;SDS011;68815;48.810;44.482;2023-07-13T01:44:10;3.8;;;1.5;;
79346;SDS011;68815;48.810;44.482;2023-07-13T01:47:12;3.9;;;1.5;;
79346;SDS011;68815;48.810;44.482;2023-07-13T01:50:14;4.7;;;1.6;;
79346;SDS011;68815;48.810;44.482;2023-07-13T01:53:15;4.3;;;1.5;;
79346;SDS011;68815;48.810;44.482;2023-07-13T01:56:17;5.2;;;1.5;;
79346;SDS011;68815;48.810;44.482;2023-07-13T01:59:18;3.8;;;1.6;;
79346;SDS011;68815;48.810;44.482;2023-07-13T02:02:51;3.9;;;1.4;;
79346;SDS011;68815;48.810;44.482;2023-07-13T02:05:53;3.8;;;1.4;;
79346;SDS011;68815;48.810;44.482;2023-07-13T02:08:55;3.9;;;1.4;;
79346;SDS011;68815;48.810;44.482;2023-07-13T02:11:56;4.6;;;1.4;;
79346;SDS011;68815;48.810;44.482;2023-07-13T02:14:58;3.6;;;1.4;;
79346;SDS011;68815;48.810;44.482;2023-07-13T02:17:59;4.2;;;1.5;;
79346;SDS011;68815;48.810;44.482;2023-07-13T02:21:01;4.9;;;1.8;;
79346;SDS011;68815;48.810;44.482;2023-07-13T02:24:02;6.6;;;1.5;;
79346;SDS011;68815;48.810;44.482;2023-07-13T02:27:04;5;;;1.8;;
79346;SDS011;68815;48.810;44.482;2023-07-13T02:30:07;3.8;;;1.6;;
79346;SDS011;68815;48.810;44.482;2023-07-13T02:33:12;4.8;;;1.5;;
79346;SDS011;68815;48.810;44.482;2023-07-13T02:36:13;5.1;;;1.6;;
79346;SDS011;68815;48.810;44.482;2023-07-13T02:39:15;3.8;;;1.6;;
79346;SDS011;68815;48.810;44.482;2023-07-13T02:42:16;4.1;;;1.4;;
79346;SDS011;68815;48.810;44.482;2023-07-13T02:45:18;4.5;;;1.7;;
79346;SDS011;68815;48.810;44.482;2023-07-13T02:48:19;4.4;;;1.6;;
79346;SDS011;68815;48.810;44.482;2023-07-13T02:51:21;3.6;;;1.6;;
79346;SDS011;68815;48.810;44.482;2023-07-13T02:54:23;5.1;;;1.6;;
79346;SDS011;68815;48.810;44.482;2023-07-13T02:57:24;3.6;;;1.4;;
79346;SDS011;68815;48.810;44.482;2023-07-13T03:00:25;3.4;;;1.4;;
79346;SDS011;68815;48.810;44.482;2023-07-13T03:03:27;3.6;;;1.6;;
79346;SDS011;68815;48.810;44.482;2023-07-13T03:06:30;4.6;;;1.7;;
79346;SDS011;68815;48.810;44.482;2023-07-13T03:09:34;3.7;;;1.4;;
79346;SDS011;68815;48.810;44.482;2023-07-13T03:12:36;3.6;;;1.6;;
79346;SDS011;68815;48.810;44.482;2023-07-13T03:15:38;4.7;;;1.9;;
79346;SDS011;68815;48.810;44.482;2023-07-13T03:18:40;4.7;;;1.8;;
79346;SDS011;68815;48.810;44.482;2023-07-13T03:21:41;5.3;;;1.9;;
79346;SDS011;68815;48.810;44.482;2023-07-13T03:24:42;4.8;;;1.9;;
79346;SDS011;68815;48.810;44.482;2023-07-13T03:27:44;6.4;;;2.2;;
79346;SDS011;68815;48.810;44.482;2023-07-13T03:30:45;5.5;;;2.9;;
79346;SDS011;68815;48.810;44.482;2023-07-13T03:33:47;5.8;;;3.4;;
79346;SDS011;68815;48.810;44.482;2023-07-13T03:36:48;5.8;;;3.2;;
79346;SDS011;68815;48.810;44.482;2023-07-13T03:39:50;4.6;;;2.1;;
79346;SDS011;68815;48.810;44.482;2023-07-13T03:42:52;4.8;;;2.4;;
79346;SDS011;68815;48.810;44.482;2023-07-13T03:45:53;4.3;;;2.2;;
79346;SDS011;68815;48.810;44.482;2023-07-13T03:48:55;5.7;;;2.3;;
79346;SDS011;68815;48.810;44.482;2023-07-13T03:51:56;6.2;;;2.5;;
79346;SDS011;68815;48.810;44.482;2023-07-13T03:54:58;4.7;;;2.3;;
79346;SDS011;68815;48.810;44.482;2023-07-13T03:58:01;4.5;;;2.4;;
79346;SDS011;68815;48.810;44.482;2023-07-13T04:01:30;4.5;;;2.1;;
79346;SDS011;68815;48.810;44.482;2023-07-13T04:04:32;4.4;;;2.2;;
79346;SDS011;68815;48.810;44.482;2023-07-13T04:07:34;5.2;;;2.1;;
79346;SDS011;68815;48.810;44.482;2023-07-13T04:10:35;5.5;;;2.6;;
79346;SDS011;68815;48.810;44.482;2023-07-13T04:13:37;4.1;;;2.1;;
79346;SDS011;68815;48.810;44.482;2023-07-13T04:16:38;4.5;;;2.2;;
79346;SDS011;68815;48.810;44.482;2023-07-13T04:19:39;5.5;;;2.3;;
79346;SDS011;68815;48.810;44.482;2023-07-13T04:22:41;6;;;3;;
79346;SDS011;68815;48.810;44.482;2023-07-13T04:25:43;5.9;;;2.1;;
79346;SDS011;68815;48.810;44.482;2023-07-13T04:28:45;5.4;;;2.1;;
79346;SDS011;68815;48.810;44.482;2023-07-13T04:31:47;4.4;;;2;;
79346;SDS011;68815;48.810;44.482;2023-07-13T04:34:48;4.8;;;2.1;;
79346;SDS011;68815;48.810;44.482;2023-07-13T04:37:49;4.2;;;2;;
79346;SDS011;68815;48.810;44.482;2023-07-13T04:40:51;4.7;;;2;;
79346;SDS011;68815;48.810;44.482;2023-07-13T04:43:52;4.1;;;1.9;;
79346;SDS011;68815;48.810;44.482;2023-07-13T04:46:54;5.4;;;2.1;;
79346;SDS011;68815;48.810;44.482;2023-07-13T04:49:55;5.5;;;2.1;;
79346;SDS011;68815;48.810;44.482;2023-07-13T04:52:57;6.8;;;3.1;;
79346;SDS011;68815;48.810;44.482;2023-07-13T04:55:58;6.3;;;3.5;;
79346;SDS011;68815;48.810;44.482;2023-07-13T04:58:59;4.7;;;2.3;;
79346;SDS011;68815;48.810;44.482;2023-07-13T05:02:02;5.2;;;2.7;;
79346;SDS011;68815;48.810;44.482;2023-07-13T05:05:04;7.7;;;2.6;;
79346;SDS011;68815;48.810;44.482;2023-07-13T05:08:06;6.1;;;2.3;;
79346;SDS011;68815;48.810;44.482;2023-07-13T05:11:07;5.8;;;2.8;;
79346;SDS011;68815;48.810;44.482;2023-07-13T05:14:10;12.1;;;6.8;;
79346;SDS011;68815;48.810;44.482;2023-07-13T05:17:11;4.5;;;2.3;;
79346;SDS011;68815;48.810;44.482;2023-07-13T05:20:13;9.3;;;5.6;;
79346;SDS011;68815;48.810;44.482;2023-07-13T05:23:15;8.7;;;4.8;;
79346;SDS011;68815;48.810;44.482;2023-07-13T05:26:17;6.7;;;3.5;;
79346;SDS011;68815;48.810;44.482;2023-07-13T05:29:19;5.4;;;2.1;;
79346;SDS011;68815;48.810;44.482;2023-07-13T05:32:20;6.3;;;3.2;;
79346;SDS011;68815;48.810;44.482;2023-07-13T05:35:21;5;;;2.4;;
79346;SDS011;68815;48.810;44.482;2023-07-13T05:38:23;5.5;;;2.7;;
79346;SDS011;68815;48.810;44.482;2023-07-13T05:41:24;3.9;;;1.7;;
79346;SDS011;68815;48.810;44.482;2023-07-13T05:44:26;4.4;;;2.1;;
79346;SDS011;68815;48.810;44.482;2023-07-13T05:47:27;5.1;;;2;;
79346;SDS011;68815;48.810;44.482;2023-07-13T05:50:29;4.6;;;2.1;;
79346;SDS011;68815;48.810;44.482;2023-07-13T05:53:30;4.3;;;1.8;;
79346;SDS011;68815;48.810;44.482;2023-07-13T05:56:32;5.4;;;1.6;;
79346;SDS011;68815;48.810;44.482;2023-07-13T05:59:33;3.9;;;1.8;;
79346;SDS011;68815;48.810;44.482;2023-07-13T06:02:35;4;;;1.7;;
79346;SDS011;68815;48.810;44.482;2023-07-13T06:05:37;4;;;1.7;;
79346;SDS011;68815;48.810;44.482;2023-07-13T06:08:39;4.2;;;1.6;;
79346;SDS011;68815;48.810;44.482;2023-07-13T06:11:40;5.4;;;1.8;;
79346;SDS011;68815;48.810;44.482;2023-07-13T06:14:42;3.9;;;1.3;;
79346;SDS011;68815;48.810;44.482;2023-07-13T06:17:43;4.3;;;1.6;;
79346;SDS011;68815;48.810;44.482;2023-07-13T06:20:45;6.4;;;3.7;;
79346;SDS011;68815;48.810;44.482;2023-07-13T06:23:47;7.1;;;3;;
79346;SDS011;68815;48.810;44.482;2023-07-13T06:26:49;4.9;;;1.8;;
79346;SDS011;68815;48.810;44.482;2023-07-13T06:29:51;3.7;;;1.6;;
79346;SDS011;68815;48.810;44.482;2023-07-13T06:32:52;3.9;;;1.5;;
79346;SDS011;68815;48.810;44.482;2023-07-13T06:35:54;5.9;;;1.7;;
79346;SDS011;68815;48.810;44.482;2023-07-13T06:38:56;4.9;;;1.6;;
79346;SDS011;68815;48.810;44.482;2023-07-13T06:41:59;3.8;;;1.5;;
79346;SDS011;68815;48.810;44.482;2023-07-13T06:45:01;5;;;1.7;;
79346;SDS011;68815;48.810;44.482;2023-07-13T06:48:02;5.4;;;1.8;;
79346;SDS011;68815;48.810;44.482;2023-07-13T06:51:05;6.3;;;3.6;;
79346;SDS011;68815;48.810;44.482;2023-07-13T06:54:07;8.4;;;4.3;;
79346;SDS011;68815;48.810;44.482;2023-07-13T06:57:08;5.9;;;2.5;;
79346;SDS011;68815;48.810;44.482;2023-07-13T07:00:10;4.7;;;1.9;;
79346;SDS011;68815;48.810;44.482;2023-07-13T07:03:12;4.4;;;1.8;;
79346;SDS011;68815;48.810;44.482;2023-07-13T07:06:16;5.6;;;1.7;;
79346;SDS011;68815;48.810;44.482;2023-07-13T07:09:19;4.5;;;1.7;;
79346;SDS011;68815;48.810;44.482;2023-07-13T07:12:21;4.9;;;1.7;;
79346;SDS011;68815;48.810;44.482;2023-07-13T07:15:22;4.5;;;1.6;;
79346;SDS011;68815;48.810;44.482;2023-07-13T07:18:24;5;;;1.6;;
79346;SDS011;68815;48.810;44.482;2023-07-13T07:21:25;4.9;;;1.6;;
79346;SDS011;68815;48.810;44.482;2023-07-13T07:24:26;5.1;;;1.4;;
79346;SDS011;68815;48.810;44.482;2023-07-13T07:27:29;5.2;;;1.3;;
79346;SDS011;68815;48.810;44.482;2023-07-13T07:30:30;4.8;;;1.3;;
79346;SDS011;68815;48.810;44.482;2023-07-13T07:33:32;5.8;;;1.4;;
79346;SDS011;68815;48.810;44.482;2023-07-13T07:36:34;3.9;;;1.5;;
79346;SDS011;68815;48.810;44.482;2023-07-13T07:39:36;3.8;;;1.3;;
79346;SDS011;68815;48.810;44.482;2023-07-13T07:42:37;3.8;;;1.2;;
79346;SDS011;68815;48.810;44.482;2023-07-13T07:45:39;4.6;;;1.5;;
79346;SDS011;68815;48.810;44.482;2023-07-13T07:48:41;3.4;;;1.2;;
79346;SDS011;68815;48.810;44.482;2023-07-13T07:51:42;4.4;;;1.5;;
79346;SDS011;68815;48.810;44.482;2023-07-13T07:54:44;4.1;;;1.4;;
79346;SDS011;68815;48.810;44.482;2023-07-13T07:57:45;3.7;;;1.3;;
79346;SDS011;68815;48.810;44.482;2023-07-13T08:00:47;3.9;;;1.5;;
79346;SDS011;68815;48.810;44.482;2023-07-13T08:03:48;4.1;;;1.4;;
79346;SDS011;68815;48.810;44.482;2023-07-13T08:06:50;3.9;;;1.1;;
79346;SDS011;68815;48.810;44.482;2023-07-13T08:09:52;3.2;;;1.3;;
79346;SDS011;68815;48.810;44.482;2023-07-13T08:12:53;5.1;;;1.1;;
79346;SDS011;68815;48.810;44.482;2023-07-13T08:15:55;3.4;;;1;;
79346;SDS011;68815;48.810;44.482;2023-07-13T08:18:56;4.1;;;1.1;;
79346;SDS011;68815;48.810;44.482;2023-07-13T08:21:58;3.2;;;1;;
79346;SDS011;68815;48.810;44.482;2023-07-13T08:24:59;4.1;;;1.4;;
79346;SDS011;68815;48.810;44.482;2023-07-13T08:28:01;5.9;;;1.1;;
79346;SDS011;68815;48.810;44.482;2023-07-13T08:31:07;2.9;;;1.1;;
79346;SDS011;68815;48.810;44.482;2023-07-13T08:34:09;4.7;;;1.2;;
79346;SDS011;68815;48.810;44.482;2023-07-13T08:37:10;4;;;1.1;;
79346;SDS011;68815;48.810;44.482;2023-07-13T08:40:12;3.4;;;1;;
79346;SDS011;68815;48.810;44.482;2023-07-13T08:43:15;2.7;;;1;;
79346;SDS011;68815;48.810;44.482;2023-07-13T08:46:20;3.7;;;1.1;;
79346;SDS011;68815;48.810;44.482;2023-07-13T08:49:27;4.4;;;1.2;;
79346;SDS011;68815;48.810;44.482;2023-07-13T08:52:30;5.3;;;1.1;;
79346;SDS011;68815;48.810;44.482;2023-07-13T08:55:36;2.8;;;1;;
79346;SDS011;68815;48.810;44.482;2023-07-13T08:58:37;3.7;;;1.1;;
79346;SDS011;68815;48.810;44.482;2023-07-13T09:01:50;3.7;;;1;;
79346;SDS011;68815;48.810;44.482;2023-07-13T09:05:00;3.8;;;1.1;;
79346;SDS011;68815;48.810;44.482;2023-07-13T09:08:10;3.5;;;1.2;;
79346;SDS011;68815;48.810;44.482;2023-07-13T09:11:29;5.2;;;1.4;;
79346;SDS011;68815;48.810;44.482;2023-07-13T09:14:41;4.5;;;1.1;;
79346;SDS011;68815;48.810;44.482;2023-07-13T09:17:47;3.2;;;1;;
79346;SDS011;68815;48.810;44.482;2023-07-13T09:20:52;4.5;;;1;;
79346;SDS011;68815;48.810;44.482;2023-07-13T09:23:59;3.3;;;1;;
79346;SDS011;68815;48.810;44.482;2023-07-13T09:27:02;4.3;;;1.1;;
79346;SDS011;68815;48.810;44.482;2023-07-13T09:30:17;5.6;;;1.3;;
79346;SDS011;68815;48.810;44.482;2023-07-13T09:33:24;3.4;;;0.9;;
79346;SDS011;68815;48.810;44.482;2023-07-13T09:36:27;2.9;;;1;;
79346;SDS011;68815;48.810;44.482;2023-07-13T09:39:32;3.6;;;1;;
79346;SDS011;68815;48.810;44.482;2023-07-13T09:42:38;4.7;;;1.1;;
79346;SDS011;68815;48.810;44.482;2023-07-13T09:45:39;3.5;;;0.8;;
79346;SDS011;68815;48.810;44.482;2023-07-13T09:48:41;4.2;;;1.1;;
79346;SDS011;68815;48.810;44.482;2023-07-13T09:51:44;4.1;;;1;;
79346;SDS011;68815;48.810;44.482;2023-07-13T09:54:48;3.5;;;1.1;;
79346;SDS011;68815;48.810;44.482;2023-07-13T09:57:51;4;;;0.9;;
79346;SDS011;68815;48.810;44.482;2023-07-13T10:00:54;3.2;;;0.8;;
79346;SDS011;68815;48.810;44.482;2023-07-13T10:03:58;3.9;;;0.9;;
79346;SDS011;68815;48.810;44.482;2023-07-13T10:07:05;4.3;;;0.8;;
79346;SDS011;68815;48.810;44.482;2023-07-13T10:10:13;4.6;;;0.8;;
79346;SDS011;68815;48.810;44.482;2023-07-13T10:13:31;3.9;;;0.9;;
79346;SDS011;68815;48.810;44.482;2023-07-13T10:16:35;3.4;;;0.9;;
79346;SDS011;68815;48.810;44.482;2023-07-13T10:19:37;4.8;;;0.9;;
79346;SDS011;68815;48.810;44.482;2023-07-13T10:22:42;4.1;;;0.9;;
79346;SDS011;68815;48.810;44.482;2023-07-13T10:25:50;2.7;;;0.8;;
79346;SDS011;68815;48.810;44.482;2023-07-13T10:28:53;8.8;;;3.8;;
79346;SDS011;68815;48.810;44.482;2023-07-13T10:31:58;3.7;;;0.8;;
79346;SDS011;68815;48.810;44.482;2023-07-13T10:35:00;2.9;;;0.8;;
79346;SDS011;68815;48.810;44.482;2023-07-13T10:38:03;4.4;;;0.8;;
79346;SDS011;68815;48.810;44.482;2023-07-13T10:41:07;3;;;0.9;;
79346;SDS011;68815;48.810;44.482;2023-07-13T10:44:17;3.6;;;0.9;;
79346;SDS011;68815;48.810;44.482;2023-07-13T10:47:22;3.3;;;1;;
79346;SDS011;68815;48.810;44.482;2023-07-13T10:50:26;3.1;;;0.9;;
79346;SDS011;68815;48.810;44.482;2023-07-13T10:53:30;4.4;;;0.9;;
79346;SDS011;68815;48.810;44.482;2023-07-13T10:56:33;4;;;0.9;;
79346;SDS011;68815;48.810;44.482;2023-07-13T10:59:35;2.8;;;0.9;;
79346;SDS011;68815;48.810;44.482;2023-07-13T11:02:36;3.7;;;1.1;;
79346;SDS011;68815;48.810;44.482;2023-07-13T11:05:38;3.1;;;1;;
79346;SDS011;68815;48.810;44.482;2023-07-13T11:08:51;4.1;;;1;;
79346;SDS011;68815;48.810;44.482;2023-07-13T11:11:56;3.2;;;1;;
79346;SDS011;68815;48.810;44.482;2023-07-13T11:15:01;3.6;;;1;;
79346;SDS011;68815;48.810;44.482;2023-07-13T11:18:10;3.2;;;1;;
79346;SDS011;68815;48.810;44.482;2023-07-13T11:21:22;3.5;;;1;;
79346;SDS011;68815;48.810;44.482;2023-07-13T11:24:28;4.5;;;1.1;;
79346;SDS011;68815;48.810;44.482;2023-07-13T11:27:35;3;;;0.9;;
79346;SDS011;68815;48.810;44.482;2023-07-13T11:30:40;5.9;;;1.1;;
79346;SDS011;68815;48.810;44.482;2023-07-13T11:33:48;5.7;;;1.1;;
79346;SDS011;68815;48.810;44.482;2023-07-13T11:36:51;4.2;;;1;;
79346;SDS011;68815;48.810;44.482;2023-07-13T11:39:53;3.7;;;1;;
79346;SDS011;68815;48.810;44.482;2023-07-13T11:42:59;4;;;1.1;;
79346;SDS011;68815;48.810;44.482;2023-07-13T11:49:15;3.5;;;1.2;;
79346;SDS011;68815;48.810;44.482;2023-07-13T11:52:18;3.3;;;1;;
79346;SDS011;68815;48.810;44.482;2023-07-13T11:55:22;3.6;;;0.8;;
79346;SDS011;68815;48.810;44.482;2023-07-13T11:58:24;3.9;;;1;;
79346;SDS011;68815;48.810;44.482;2023-07-13T12:01:29;4;;;1;;
79346;SDS011;68815;48.810;44.482;2023-07-13T12:04:32;3;;;1;;
79346;SDS011;68815;48.810;44.482;2023-07-13T12:07:35;3.8;;;1.1;;
79346;SDS011;68815;48.810;44.482;2023-07-13T12:10:37;3.4;;;1;;
79346;SDS011;68815;48.810;44.482;2023-07-13T12:13:38;4.2;;;1.2;;
79346;SDS011;68815;48.810;44.482;2023-07-13T12:16:40;5.4;;;1;;
79346;SDS011;68815;48.810;44.482;2023-07-13T12:19:42;3.9;;;1.2;;
79346;SDS011;68815;48.810;44.482;2023-07-13T12:22:45;3.2;;;1.1;;
79346;SDS011;68815;48.810;44.482;2023-07-13T12:25:46;3.7;;;1;;
79346;SDS011;68815;48.810;44.482;2023-07-13T12:28:49;3.5;;;1.1;;
79346;SDS011;68815;48.810;44.482;2023-07-13T12:31:53;5.2;;;1.1;;
79346;SDS011;68815;48.810;44.482;2023-07-13T12:34:55;4;;;1.2;;
79346;SDS011;68815;48.810;44.482;2023-07-13T12:37:57;3.5;;;1.1;;
79346;SDS011;68815;48.810;44.482;2023-07-13T12:40:59;4.4;;;1.3;;
79346;SDS011;68815;48.810;44.482;2023-07-13T12:44:03;4.7;;;1.2;;
79346;SDS011;68815;48.810;44.482;2023-07-13T12:47:06;3.5;;;1.2;;
79346;SDS011;68815;48.810;44.482;2023-07-13T12:50:15;5;;;1;;
79346;SDS011;68815;48.810;44.482;2023-07-13T12:53:19;3.7;;;1;;
79346;SDS011;68815;48.810;44.482;2023-07-13T12:56:22;3.6;;;1.2;;
79346;SDS011;68815;48.810;44.482;2023-07-13T12:59:29;3.6;;;1.2;;
79346;SDS011;68815;48.810;44.482;2023-07-13T13:02:32;5.1;;;1.2;;
79346;SDS011;68815;48.810;44.482;2023-07-13T13:05:35;4.7;;;1.1;;
79346;SDS011;68815;48.810;44.482;2023-07-13T13:08:36;3.8;;;1.2;;
79346;SDS011;68815;48.810;44.482;2023-07-13T13:11:38;5.7;;;2.7;;
79346;SDS011;68815;48.810;44.482;2023-07-13T13:14:39;6.9;;;1.5;;
79346;SDS011;68815;48.810;44.482;2023-07-13T13:17:40;5.3;;;1.1;;
79346;SDS011;68815;48.810;44.482;2023-07-13T13:20:42;3.8;;;1.1;;
79346;SDS011;68815;48.810;44.482;2023-07-13T13:23:43;3.8;;;1.2;;
79346;SDS011;68815;48.810;44.482;2023-07-13T13:26:45;4.2;;;1.1;;
79346;SDS011;68815;48.810;44.482;2023-07-13T13:29:48;3.5;;;1.1;;
79346;SDS011;68815;48.810;44.482;2023-07-13T13:32:51;4.5;;;1.5;;
79346;SDS011;68815;48.810;44.482;2023-07-13T13:35:52;3.7;;;1.1;;
79346;SDS011;68815;48.810;44.482;2023-07-13T13:38:54;4.3;;;1.1;;
79346;SDS011;68815;48.810;44.482;2023-07-13T13:41:55;3.3;;;1.2;;
79346;SDS011;68815;48.810;44.482;2023-07-13T13:44:56;4;;;1.1;;
79346;SDS011;68815;48.810;44.482;2023-07-13T13:47:57;3.1;;;1.2;;
79346;SDS011;68815;48.810;44.482;2023-07-13T13:50:59;3.9;;;1.2;;
79346;SDS011;68815;48.810;44.482;2023-07-13T13:54:02;4.5;;;1.3;;
79346;SDS011;68815;48.810;44.482;2023-07-13T13:57:04;4.1;;;1.2;;
79346;SDS011;68815;48.810;44.482;2023-07-13T14:00:07;4.1;;;1.2;;
79346;SDS011;68815;48.810;44.482;2023-07-13T14:03:13;3.9;;;1.3;;
79346;SDS011;68815;48.810;44.482;2023-07-13T14:06:17;3.4;;;1.1;;
79346;SDS011;68815;48.810;44.482;2023-07-13T14:09:18;3.9;;;1.4;;
79346;SDS011;68815;48.810;44.482;2023-07-13T14:12:20;3.2;;;1.3;;
79346;SDS011;68815;48.810;44.482;2023-07-13T14:15:23;3.8;;;1.3;;
79346;SDS011;68815;48.810;44.482;2023-07-13T14:18:26;4.8;;;1.3;;
79346;SDS011;68815;48.810;44.482;2023-07-13T14:21:28;5.5;;;1.7;;
79346;SDS011;68815;48.810;44.482;2023-07-13T14:24:30;5.4;;;1.4;;
79346;SDS011;68815;48.810;44.482;2023-07-13T14:27:32;3.8;;;1.2;;
79346;SDS011;68815;48.810;44.482;2023-07-13T14:30:33;5.4;;;1.4;;
79346;SDS011;68815;48.810;44.482;2023-07-13T14:33:35;4.1;;;1.4;;
79346;SDS011;68815;48.810;44.482;2023-07-13T14:36:37;3.9;;;1.5;;
79346;SDS011;68815;48.810;44.482;2023-07-13T14:39:40;4.7;;;1.3;;
79346;SDS011;68815;48.810;44.482;2023-07-13T14:42:45;4.6;;;1.5;;
79346;SDS011;68815;48.810;44.482;2023-07-13T14:45:46;4.2;;;1.4;;
79346;SDS011;68815;48.810;44.482;2023-07-13T14:48:50;4.6;;;1.4;;
79346;SDS011;68815;48.810;44.482;2023-07-13T14:51:52;5.1;;;1.5;;
79346;SDS011;68815;48.810;44.482;2023-07-13T14:54:53;4.2;;;1.6;;
79346;SDS011;68815;48.810;44.482;2023-07-13T14:57:54;6;;;1.5;;
79346;SDS011;68815;48.810;44.482;2023-07-13T15:00:56;5.3;;;1.5;;
79346;SDS011;68815;48.810;44.482;2023-07-13T15:03:57;4.7;;;1.7;;
79346;SDS011;68815;48.810;44.482;2023-07-13T15:07:01;3.6;;;1.4;;
79346;SDS011;68815;48.810;44.482;2023-07-13T15:10:04;4.2;;;1.5;;
79346;SDS011;68815;48.810;44.482;2023-07-13T15:13:14;4.9;;;2;;
79346;SDS011;68815;48.810;44.482;2023-07-13T15:16:17;5.8;;;1.7;;
79346;SDS011;68815;48.810;44.482;2023-07-13T15:19:23;5;;;1.7;;
79346;SDS011;68815;48.810;44.482;2023-07-13T15:22:26;5.5;;;1.7;;
79346;SDS011;68815;48.810;44.482;2023-07-13T15:25:28;5.1;;;1.7;;
79346;SDS011;68815;48.810;44.482;2023-07-13T15:28:30;5.3;;;1.6;;
79346;SDS011;68815;48.810;44.482;2023-07-13T15:31:32;4.5;;;1.7;;
79346;SDS011;68815;48.810;44.482;2023-07-13T15:34:35;5.2;;;1.8;;
79346;SDS011;68815;48.810;44.482;2023-07-13T15:37:36;4.4;;;1.7;;
79346;SDS011;68815;48.810;44.482;2023-07-13T15:40:37;5.9;;;1.8;;
79346;SDS011;68815;48.810;44.482;2023-07-13T15:43:39;6.4;;;1.9;;
79346;SDS011;68815;48.810;44.482;2023-07-13T15:46:41;7.9;;;1.8;;
79346;SDS011;68815;48.810;44.482;2023-07-13T15:49:42;5.6;;;1.8;;
79346;SDS011;68815;48.810;44.482;2023-07-13T15:52:44;6;;;1.7;;
79346;SDS011;68815;48.810;44.482;2023-07-13T15:55:49;4.7;;;1.7;;
79346;SDS011;68815;48.810;44.482;2023-07-13T15:58:51;7.3;;;1.9;;
79346;SDS011;68815;48.810;44.482;2023-07-13T16:01:52;4.4;;;1.9;;
79346;SDS011;68815;48.810;44.482;2023-07-13T16:04:54;5.6;;;1.7;;
79346;SDS011;68815;48.810;44.482;2023-07-13T16:07:56;5.1;;;2;;
79346;SDS011;68815;48.810;44.482;2023-07-13T16:10:58;3.9;;;1.9;;
79346;SDS011;68815;48.810;44.482;2023-07-13T16:14:01;5.4;;;1.8;;
79346;SDS011;68815;48.810;44.482;2023-07-13T16:17:02;5.1;;;2.1;;
79346;SDS011;68815;48.810;44.482;2023-07-13T16:20:05;4.7;;;1.8;;
79346;SDS011;68815;48.810;44.482;2023-07-13T16:23:07;4.8;;;1.9;;
79346;SDS011;68815;48.810;44.482;2023-07-13T16:26:16;5.2;;;2.1;;
79346;SDS011;68815;48.810;44.482;2023-07-13T16:29:24;5.6;;;2;;
79346;SDS011;68815;48.810;44.482;2023-07-13T16:32:27;6.1;;;2;;
79346;SDS011;68815;48.810;44.482;2023-07-13T16:35:28;4.2;;;1.9;;
79346;SDS011;68815;48.810;44.482;2023-07-13T16:38:31;6.6;;;2.1;;
79346;SDS011;68815;48.810;44.482;2023-07-13T16:41:33;4.6;;;1.9;;
79346;SDS011;68815;48.810;44.482;2023-07-13T16:44:35;4.5;;;1.9;;
79346;SDS011;68815;48.810;44.482;2023-07-13T16:47:36;5.5;;;2.1;;
79346;SDS011;68815;48.810;44.482;2023-07-13T16:50:38;5.4;;;2;;
79346;SDS011;68815;48.810;44.482;2023-07-13T16:53:39;5.3;;;2;;
79346;SDS011;68815;48.810;44.482;2023-07-13T16:56:41;5.7;;;1.9;;
79346;SDS011;68815;48.810;44.482;2023-07-13T16:59:42;5.2;;;2.4;;
79346;SDS011;68815;48.810;44.482;2023-07-13T17:02:44;4.9;;;2.2;;
79346;SDS011;68815;48.810;44.482;2023-07-13T17:05:46;6.3;;;2.1;;
79346;SDS011;68815;48.810;44.482;2023-07-13T17:08:48;5.4;;;2.4;;
79346;SDS011;68815;48.810;44.482;2023-07-13T17:11:51;5.9;;;2.1;;
79346;SDS011;68815;48.810;44.482;2023-07-13T17:14:53;7.3;;;2.8;;
79346;SDS011;68815;48.810;44.482;2023-07-13T17:17:55;7.6;;;4.4;;
79346;SDS011;68815;48.810;44.482;2023-07-13T17:20:57;5.7;;;2.4;;
79346;SDS011;68815;48.810;44.482;2023-07-13T17:23:59;7.6;;;2.5;;
79346;SDS011;68815;48.810;44.482;2023-07-13T17:27:00;4.6;;;2.4;;
79346;SDS011;68815;48.810;44.482;2023-07-13T17:30:03;5;;;2.5;;
79346;SDS011;68815;48.810;44.482;2023-07-13T17:33:06;6.7;;;2.7;;
79346;SDS011;68815;48.810;44.482;2023-07-13T17:36:16;5.6;;;2.4;;
79346;SDS011;68815;48.810;44.482;2023-07-13T17:39:19;5.2;;;2.4;;
79346;SDS011;68815;48.810;44.482;2023-07-13T17:42:21;4.6;;;2.2;;
79346;SDS011;68815;48.810;44.482;2023-07-13T17:45:22;4.7;;;2.2;;
79346;SDS011;68815;48.810;44.482;2023-07-13T17:48:25;4.6;;;2.3;;
79346;SDS011;68815;48.810;44.482;2023-07-13T17:51:26;6.2;;;2.4;;
79346;SDS011;68815;48.810;44.482;2023-07-13T17:54:27;8.5;;;2.5;;
79346;SDS011;68815;48.810;44.482;2023-07-13T17:57:29;5.2;;;2.3;;
79346;SDS011;68815;48.810;44.482;2023-07-13T18:00:31;6.9;;;2.3;;
79346;SDS011;68815;48.810;44.482;2023-07-13T18:03:35;6.7;;;2.4;;
79346;SDS011;68815;48.810;44.482;2023-07-13T18:06:41;8.7;;;2.7;;
79346;SDS011;68815;48.810;44.482;2023-07-13T18:09:46;10.2;;;2.3;;
79346;SDS011;68815;48.810;44.482;2023-07-13T18:12:48;7;;;2.7;;
79346;SDS011;68815;48.810;44.482;2023-07-13T18:15:49;7.3;;;2.8;;
79346;SDS011;68815;48.810;44.482;2023-07-13T18:18:50;7.8;;;2.7;;
79346;SDS011;68815;48.810;44.482;2023-07-13T18:21:52;7.4;;;2.8;;
79346;SDS011;68815;48.810;44.482;2023-07-13T18:24:53;7.8;;;2.7;;
79346;SDS011;68815;48.810;44.482;2023-07-13T18:27:55;6.2;;;2.4;;
79346;SDS011;68815;48.810;44.482;2023-07-13T18:30:56;5.6;;;2.7;;
79346;SDS011;68815;48.810;44.482;2023-07-13T18:33:59;5.4;;;2.5;;
79346;SDS011;68815;48.810;44.482;2023-07-13T18:37:00;6.5;;;2.5;;
79346;SDS011;68815;48.810;44.482;2023-07-13T18:40:02;7.5;;;2.3;;
79346;SDS011;68815;48.810;44.482;2023-07-13T18:43:03;8.2;;;3.7;;
79346;SDS011;68815;48.810;44.482;2023-07-13T18:46:10;5.7;;;2.2;;
79346;SDS011;68815;48.810;44.482;2023-07-13T18:49:15;10.5;;;5.1;;